createdAt,value
2023-04-29T00:01:14.185Z,100845.19
2023-04-29T00:03:40.994Z,100860.88
2023-04-29T00:06:08.007Z,100859.91
2023-04-29T00:08:34.883Z,100857.78
2023-04-29T00:11:01.564Z,100867.72
2023-04-29T00:13:28.260Z,100875.88
2023-04-29T00:15:55.030Z,100869.63
2023-04-29T00:18:24.862Z,100882.34
2023-04-29T00:20:51.515Z,100865.44
2023-04-29T00:23:18.262Z,100868.84
2023-04-29T00:25:44.961Z,100871.13
2023-04-29T00:28:11.651Z,100879.56
2023-04-29T00:30:38.409Z,100881.78
2023-04-29T00:33:05.220Z,100885.66
2023-04-29T00:35:31.965Z,100890.03
2023-04-29T00:37:58.692Z,100890.19
2023-04-29T00:40:25.507Z,100888.81
2023-04-29T00:42:52.200Z,100896.13
2023-04-29T00:45:18.870Z,100900.94
2023-04-29T00:47:45.601Z,100902.34
2023-04-29T00:50:12.797Z,100910.44
2023-04-29T00:52:39.899Z,100912.97
2023-04-29T00:55:09.180Z,100913.78
2023-04-29T00:57:35.942Z,100911.34
2023-04-29T01:00:03.421Z,100902.88
2023-04-29T01:02:30.326Z,100921.75
2023-04-29T01:04:57.339Z,100920.06
2023-04-29T01:07:43.061Z,100922.34
2023-04-29T01:10:12.232Z,100916.75
2023-04-29T01:13:00.003Z,100921.38
2023-04-29T01:15:31.246Z,100924.13
2023-04-29T01:18:03.951Z,100920.91
2023-04-29T01:20:31.515Z,100924.75
2023-04-29T01:22:58.369Z,100928.88
2023-04-29T01:25:25.451Z,100929.84
2023-04-29T01:28:05.856Z,100931.34
2023-04-29T01:30:42.159Z,100932.09
2023-04-29T01:33:22.322Z,100954.88
2023-04-29T01:36:10.937Z,100936.88
2023-04-29T01:38:42.231Z,100948.09
2023-04-29T01:41:26.990Z,100950.16
2023-04-29T01:43:56.945Z,100943.22
2023-04-29T01:46:23.754Z,100928.09
2023-04-29T01:48:54.137Z,100950.47
2023-04-29T01:51:21.323Z,100945.06
2023-04-29T01:53:48.162Z,100950.53
2023-04-29T01:56:14.853Z,100954.94
2023-04-29T01:58:41.552Z,100957.84
2023-04-29T02:01:10.590Z,100959.91
2023-04-29T02:03:37.594Z,100950.88
2023-04-29T02:06:04.606Z,100958.09
2023-04-29T02:08:31.431Z,100957.84
2023-04-29T02:10:59.446Z,100961.94
2023-04-29T02:13:26.247Z,100965.03
2023-04-29T02:15:55.580Z,100966.56
2023-04-29T02:23:57.454Z,100971.69
2023-04-29T02:26:27.184Z,100978.06
2023-04-29T02:28:55.819Z,100982.06
2023-04-29T02:31:22.691Z,100988.41
2023-04-29T02:34:00.871Z,100982.56
2023-04-29T02:36:31.309Z,100984.72
2023-04-29T02:38:58.199Z,100990.38
2023-04-29T02:41:26.004Z,100989.25
2023-04-29T02:43:53.226Z,100989.84
2023-04-29T02:46:20.059Z,100995.16
2023-04-29T02:48:46.845Z,100997.47
2023-04-29T02:51:13.510Z,100994.66
2023-04-29T02:53:40.253Z,101005.16
2023-04-29T02:56:06.993Z,101002.88
2023-04-29T02:58:33.700Z,101010.66
2023-04-29T03:01:00.483Z,101013.31
2023-04-29T03:03:27.304Z,101008.00
2023-04-29T03:05:54.048Z,101007.25
2023-04-29T03:08:20.775Z,101015.72
2023-04-29T03:10:47.779Z,101017.25
2023-04-29T03:13:14.429Z,101015.97
2023-04-29T03:15:41.257Z,101023.66
2023-04-29T03:18:08.151Z,101024.97
2023-04-29T03:20:34.924Z,101027.63
2023-04-29T03:23:02.381Z,101031.13
2023-04-29T03:25:29.431Z,101019.47
2023-04-29T03:27:56.393Z,101032.31
2023-04-29T03:30:23.088Z,101032.97
2023-04-29T03:32:49.789Z,101028.63
2023-04-29T03:35:16.529Z,101038.13
2023-04-29T03:37:44.777Z,101034.81
2023-04-29T03:40:12.427Z,101040.72
2023-04-29T03:42:39.168Z,101043.44
2023-04-29T03:45:07.110Z,101046.88
2023-04-29T03:47:33.923Z,101039.34
2023-04-29T03:50:00.658Z,101042.31
2023-04-29T03:52:27.514Z,101042.25
2023-04-29T03:54:54.238Z,101044.19
2023-04-29T03:57:21.030Z,101043.31
2023-04-29T03:59:50.873Z,101052.66
2023-04-29T04:02:18.077Z,101046.22
2023-04-29T04:04:45.052Z,101044.72
2023-04-29T04:07:12.121Z,101054.03
2023-04-29T04:09:38.846Z,101059.63
2023-04-29T04:12:06.903Z,101063.53
2023-04-29T04:14:33.752Z,101062.66
2023-04-29T04:17:01.432Z,101064.59
2023-04-29T04:19:29.380Z,101066.91
2023-04-29T04:21:56.209Z,101068.31
2023-04-29T04:24:23.460Z,101065.25
2023-04-29T04:26:50.243Z,101073.91
2023-04-29T04:29:17.043Z,101074.03
2023-04-29T04:31:46.270Z,101074.03
2023-04-29T04:34:13.740Z,101078.91
2023-04-29T04:36:40.565Z,101084.09
2023-04-29T04:39:07.233Z,101085.28
2023-04-29T04:41:34.006Z,101090.25
2023-04-29T04:44:00.717Z,101095.00
2023-04-29T04:46:27.414Z,101095.63
2023-04-29T04:48:54.382Z,101095.38
2023-04-29T04:51:21.437Z,101105.06
2023-04-29T04:53:48.256Z,101102.16
2023-04-29T04:56:15.155Z,101104.94
2023-04-29T04:58:41.806Z,101108.56
2023-04-29T05:01:08.559Z,101113.09
2023-04-29T05:03:35.631Z,101115.28
2023-04-29T05:06:02.566Z,101112.09
2023-04-29T05:08:29.299Z,101116.22
2023-04-29T05:10:56.164Z,101118.16
2023-04-29T05:13:22.908Z,101116.94
2023-04-29T05:15:49.620Z,101127.28
2023-04-29T05:18:16.470Z,101126.13
2023-04-29T05:20:43.253Z,101122.38
2023-04-29T05:23:10.471Z,101133.75
2023-04-29T05:25:37.236Z,101141.88
2023-04-29T05:28:04.761Z,101133.38
2023-04-29T05:30:31.558Z,101141.34
2023-04-29T05:32:58.974Z,101148.59
2023-04-29T05:35:25.770Z,101144.28
2023-04-29T05:37:52.492Z,101143.56
2023-04-29T05:40:19.259Z,101158.56
2023-04-29T05:42:45.948Z,101152.78
2023-04-29T05:45:12.872Z,101163.13
2023-04-29T05:47:39.603Z,101157.94
2023-04-29T05:50:06.715Z,101166.78
2023-04-29T05:52:33.523Z,101165.53
2023-04-29T05:55:00.198Z,101168.97
2023-04-29T05:57:27.294Z,101176.69
2023-04-29T05:59:55.567Z,101176.91
2023-04-29T06:02:23.113Z,101181.06
2023-04-29T06:04:50.104Z,101186.91
2023-04-29T06:07:19.944Z,101188.25
2023-04-29T06:09:47.143Z,101190.13
2023-04-29T06:12:14.127Z,101198.47
2023-04-29T06:14:41.064Z,101202.00
2023-04-29T06:17:07.746Z,101199.94
2023-04-29T06:19:34.554Z,101206.88
2023-04-29T06:22:01.827Z,101206.66
2023-04-29T06:24:28.552Z,101205.69
2023-04-29T06:26:55.455Z,101213.66
2023-04-29T06:29:22.913Z,101218.09
2023-04-29T06:31:49.656Z,101226.31
2023-04-29T06:34:16.433Z,101226.88
2023-04-29T06:36:43.389Z,101227.13
2023-04-29T06:39:10.056Z,101222.25
2023-04-29T06:41:37.158Z,101227.25
2023-04-29T06:44:03.933Z,101235.94
2023-04-29T06:46:30.659Z,101232.16
2023-04-29T06:48:57.580Z,101239.66
2023-04-29T06:51:25.184Z,101238.03
2023-04-29T06:53:51.873Z,101242.31
2023-04-29T06:56:18.841Z,101249.28
2023-04-29T06:58:45.764Z,101249.13
2023-04-29T07:01:12.850Z,101251.59
2023-04-29T07:03:39.748Z,101252.53
2023-04-29T07:06:06.820Z,101258.16
2023-04-29T07:08:33.779Z,101261.00
2023-04-29T07:11:00.630Z,101254.28
2023-04-29T07:13:27.504Z,101262.47
2023-04-29T07:15:54.409Z,101270.03
2023-04-29T07:18:21.109Z,101272.84
2023-04-29T07:20:48.406Z,101270.88
2023-04-29T07:23:15.356Z,101277.59
2023-04-29T07:25:42.159Z,101289.00
2023-04-29T07:28:09.362Z,101285.16
2023-04-29T07:30:36.582Z,101293.84
2023-04-29T07:33:04.611Z,101295.88
2023-04-29T07:35:31.787Z,101310.94
2023-04-29T07:37:58.584Z,101299.56
2023-04-29T07:40:25.298Z,101302.22
2023-04-29T07:42:52.097Z,101310.19
2023-04-29T07:45:18.844Z,101310.78
2023-04-29T07:47:46.019Z,101313.69
2023-04-29T07:50:13.006Z,101320.78
2023-04-29T07:52:39.774Z,101321.47
2023-04-29T07:55:06.821Z,101313.34
2023-04-29T07:57:33.563Z,101319.38
2023-04-29T08:00:00.262Z,101323.38
2023-04-29T08:02:27.282Z,101329.03
2023-04-29T08:04:56.350Z,101330.19
2023-04-29T08:07:23.556Z,101333.03
2023-04-29T08:09:50.325Z,101335.75
2023-04-29T08:12:17.384Z,101341.69
2023-04-29T08:14:44.136Z,101336.78
2023-04-29T08:17:11.301Z,101338.00
2023-04-29T08:19:38.150Z,101348.16
2023-04-29T08:22:05.143Z,101341.97
2023-04-29T08:24:33.991Z,101342.84
2023-04-29T08:27:01.650Z,101348.78
2023-04-29T08:29:28.375Z,101352.28
2023-04-29T08:31:56.056Z,101362.91
2023-04-29T08:34:22.859Z,101360.50
2023-04-29T08:36:49.484Z,101362.50
2023-04-29T08:39:16.299Z,101363.50
2023-04-29T08:41:45.828Z,101362.44
2023-04-29T08:44:12.580Z,101368.94
2023-04-29T08:46:39.775Z,101369.63
2023-04-29T08:49:07.151Z,101370.75
2023-04-29T08:51:34.868Z,101376.75
2023-04-29T08:54:01.831Z,101381.28
2023-04-29T08:56:31.179Z,101380.25
2023-04-29T08:58:59.250Z,101376.03
2023-04-29T09:01:29.726Z,101386.59
2023-04-29T09:04:08.575Z,101387.22
2023-04-29T09:06:35.304Z,101392.06
2023-04-29T09:09:03.819Z,101393.97
2023-04-29T09:11:31.342Z,101396.00
2023-04-29T09:14:02.146Z,101395.69
2023-04-29T09:16:29.608Z,101399.53
2023-04-29T09:18:57.113Z,101393.09
2023-04-29T09:21:28.769Z,101396.97
2023-04-29T09:24:05.954Z,101400.03
2023-04-29T09:26:41.737Z,101400.75
2023-04-29T09:29:16.281Z,101408.31
2023-04-29T09:31:43.189Z,101414.59
2023-04-29T09:34:12.107Z,101416.69
2023-04-29T09:36:38.740Z,101417.81
2023-04-29T09:39:11.523Z,101415.78
2023-04-29T09:41:53.946Z,101419.06
2023-04-29T09:44:24.922Z,101417.03
2023-04-29T09:46:58.678Z,101425.59
2023-04-29T09:49:41.012Z,101423.78
2023-04-29T09:52:11.030Z,101434.44
2023-04-29T09:54:39.301Z,101427.66
2023-04-29T09:57:07.422Z,101428.22
2023-04-29T09:59:41.622Z,101435.88
2023-04-29T10:02:16.205Z,101425.13
2023-04-29T10:04:45.354Z,101426.97
2023-04-29T10:07:17.266Z,101433.38
2023-04-29T10:09:48.159Z,101438.59
2023-04-29T10:12:19.185Z,101441.88
2023-04-29T10:14:51.460Z,101449.69
2023-04-29T10:17:25.165Z,101447.31
2023-04-29T10:20:06.148Z,101453.28
2023-04-29T10:23:02.578Z,101451.56
2023-04-29T10:25:29.722Z,101449.97
2023-04-29T10:27:56.648Z,101459.22
2023-04-29T10:30:23.452Z,101451.16
2023-04-29T10:32:52.406Z,101462.31
2023-04-29T10:35:23.194Z,101458.72
2023-04-29T10:37:50.419Z,101457.44
2023-04-29T10:40:21.307Z,101457.84
2023-04-29T10:42:50.129Z,101459.03
2023-04-29T10:45:21.256Z,101460.50
2023-04-29T10:48:40.452Z,101459.41
2023-04-29T10:51:07.787Z,101469.75
2023-04-29T10:53:34.727Z,101467.78
2023-04-29T10:56:08.321Z,101469.84
2023-04-29T10:58:36.513Z,101465.25
2023-04-29T11:01:04.139Z,101465.97
2023-04-29T11:04:00.729Z,101468.38
2023-04-29T11:06:36.656Z,101470.16
2023-04-29T11:09:14.793Z,101466.34
2023-04-29T11:11:58.435Z,101469.81
2023-04-29T11:14:27.182Z,101461.03
2023-04-29T11:16:57.233Z,101467.00
2023-04-29T11:19:26.289Z,101470.53
2023-04-29T11:22:09.469Z,101465.91
2023-04-29T11:24:39.636Z,101469.09
2023-04-29T11:27:06.509Z,101470.69
2023-04-29T11:29:33.686Z,101465.63
2023-04-29T11:32:02.337Z,101467.06
2023-04-29T11:34:29.827Z,101464.41
2023-04-29T11:36:56.637Z,101474.91
2023-04-29T11:39:23.635Z,101476.25
2023-04-29T11:41:52.589Z,101476.06
2023-04-29T11:44:23.407Z,101478.88
2023-04-29T11:46:50.400Z,101468.69
2023-04-29T11:49:17.163Z,101473.38
2023-04-29T11:51:44.042Z,101470.59
2023-04-29T11:54:12.181Z,101485.75
2023-04-29T11:56:38.915Z,101472.69
2023-04-29T11:59:08.328Z,101476.13
2023-04-29T12:01:36.188Z,101471.66
2023-04-29T12:04:03.499Z,101473.47
2023-04-29T12:06:30.599Z,101468.44
2023-04-29T12:08:59.634Z,101475.78
2023-04-29T12:11:27.022Z,101477.25
2023-04-29T12:13:54.143Z,101471.84
2023-04-29T12:16:21.051Z,101469.50
2023-04-29T12:18:47.929Z,101473.59
2023-04-29T12:21:14.848Z,101467.16
2023-04-29T12:23:41.754Z,101465.63
2023-04-29T12:26:09.294Z,101465.63
2023-04-29T12:28:36.357Z,101464.81
2023-04-29T12:31:03.747Z,101455.94
2023-04-29T12:33:30.581Z,101469.25
2023-04-29T12:35:58.927Z,101479.91
2023-04-29T12:38:27.982Z,101480.78
2023-04-29T12:40:55.565Z,101479.94
2023-04-29T12:43:29.491Z,101477.84
2023-04-29T12:46:03.350Z,101476.50
2023-04-29T12:48:34.375Z,101476.88
2023-04-29T12:51:02.034Z,101479.94
2023-04-29T12:53:32.331Z,101482.31
2023-04-29T12:55:59.298Z,101481.66
2023-04-29T12:58:29.583Z,101484.31
2023-04-29T13:01:05.585Z,101478.69
2023-04-29T13:03:33.519Z,101473.91
2023-04-29T13:06:01.551Z,101486.50
2023-04-29T13:08:28.293Z,101486.50
2023-04-29T13:10:55.085Z,101488.88
2023-04-29T13:13:21.838Z,101485.91
2023-04-29T13:15:48.818Z,101493.28
2023-04-29T13:18:15.972Z,101499.69
2023-04-29T13:20:42.929Z,101498.31
2023-04-29T13:23:10.384Z,101503.19
2023-04-29T13:25:37.299Z,101495.19
2023-04-29T13:28:05.718Z,101495.84
2023-04-29T13:30:33.426Z,101499.69
2023-04-29T13:33:09.289Z,101499.88
2023-04-29T13:35:38.612Z,101503.31
2023-04-29T13:38:05.525Z,101498.53
2023-04-29T13:40:37.423Z,101504.25
2023-04-29T13:45:39.976Z,101498.16
2023-04-29T13:48:25.980Z,101505.84
2023-04-29T13:51:41.133Z,101505.69
2023-04-29T13:54:37.330Z,101507.50
2023-04-29T13:57:12.404Z,101504.03
2023-04-29T14:04:17.478Z,101511.88
2023-04-29T14:06:44.495Z,101502.31
2023-04-29T14:09:11.234Z,101499.81
2023-04-29T14:11:38.189Z,101508.34
2023-04-29T14:14:05.016Z,101497.44
2023-04-29T14:16:32.635Z,101504.69
2023-04-29T14:19:01.367Z,101505.81
2023-04-29T14:21:30.894Z,101506.66
2023-04-29T14:23:57.712Z,101503.66
2023-04-29T14:26:28.214Z,101503.53
2023-04-29T14:28:59.715Z,101506.66
2023-04-29T14:31:28.940Z,101510.34
2023-04-29T14:33:59.339Z,101517.06
2023-04-29T14:36:29.391Z,101511.72
2023-04-29T14:38:56.481Z,101518.69
2023-04-29T14:41:23.332Z,101527.19
2023-04-29T14:43:50.147Z,101528.91
2023-04-29T14:46:17.376Z,101531.31
2023-04-29T14:48:44.183Z,101527.38
2023-04-29T14:51:11.012Z,101529.84
2023-04-29T14:53:37.929Z,101530.44
2023-04-29T14:56:04.736Z,101532.53
2023-04-29T14:58:31.510Z,101533.84
2023-04-29T15:00:58.272Z,101540.75
2023-04-29T15:03:25.070Z,101535.03
2023-04-29T15:05:52.057Z,101537.25
2023-04-29T15:08:19.596Z,101543.31
2023-04-29T15:10:50.216Z,101542.72
2023-04-29T15:13:17.091Z,101541.38
2023-04-29T15:15:43.877Z,101533.50
2023-04-29T15:18:10.754Z,101532.78
2023-04-29T15:20:38.163Z,101537.91
2023-04-29T15:23:06.171Z,101532.00
2023-04-29T15:25:34.754Z,101538.63
2023-04-29T15:28:04.104Z,101536.56
2023-04-29T15:30:30.859Z,101543.41
2023-04-29T15:32:57.807Z,101537.50
2023-04-29T15:35:24.551Z,101537.03
2023-04-29T15:37:51.280Z,101540.19
2023-04-29T15:40:18.091Z,101541.72
2023-04-29T15:42:44.893Z,101536.66
2023-04-29T15:45:11.943Z,101536.03
2023-04-29T15:47:39.070Z,101537.28
2023-04-29T15:50:06.829Z,101536.63
2023-04-29T15:52:33.686Z,101548.81
2023-04-29T15:55:00.519Z,101552.84
2023-04-29T15:57:27.388Z,101553.06
2023-04-29T15:59:54.296Z,101550.50
2023-04-29T16:02:21.683Z,101544.13
2023-04-29T16:04:48.561Z,101555.88
2023-04-29T16:07:15.271Z,101553.75
2023-04-29T16:09:42.043Z,101563.16
2023-04-29T16:12:11.754Z,101553.13
2023-04-29T16:14:38.578Z,101567.47
2023-04-29T16:17:05.899Z,101557.91
2023-04-29T16:19:34.522Z,101563.53
2023-04-29T16:22:03.431Z,101565.56
2023-04-29T16:24:30.358Z,101563.63
2023-04-29T16:26:57.188Z,101563.75
2023-04-29T16:29:23.886Z,101568.03
2023-04-29T16:31:50.818Z,101567.00
2023-04-29T16:34:17.653Z,101569.28
2023-04-29T16:36:44.422Z,101564.25
2023-04-29T16:39:11.174Z,101569.50
2023-04-29T16:41:38.030Z,101557.25
2023-04-29T16:44:04.880Z,101560.13
2023-04-29T16:46:32.761Z,101569.97
2023-04-29T16:48:59.751Z,101565.75
2023-04-29T16:51:26.744Z,101565.88
2023-04-29T16:53:53.699Z,101566.81
2023-04-29T16:56:21.793Z,101568.94
2023-04-29T16:58:49.039Z,101569.50
2023-04-29T17:01:19.882Z,101568.72
2023-04-29T17:03:47.823Z,101567.97
2023-04-29T17:06:18.265Z,101573.50
2023-04-29T17:08:45.808Z,101570.16
2023-04-29T17:11:12.784Z,101570.25
2023-04-29T17:13:39.557Z,101575.78
2023-04-29T17:16:07.224Z,101573.38
2023-04-29T17:18:34.435Z,101576.06
2023-04-29T17:21:01.172Z,101582.19
2023-04-29T17:23:28.205Z,101583.13
2023-04-29T17:25:55.674Z,101582.84
2023-04-29T17:28:22.915Z,101576.84
2023-04-29T17:30:49.984Z,101575.88
2023-04-29T17:33:17.887Z,101578.66
2023-04-29T17:35:45.423Z,101584.38
2023-04-29T17:38:12.413Z,101584.19
2023-04-29T17:40:39.641Z,101580.72
2023-04-29T17:43:06.458Z,101576.81
2023-04-29T17:45:33.311Z,101580.66
2023-04-29T17:48:00.254Z,101579.78
2023-04-29T17:50:26.981Z,101577.03
2023-04-29T17:52:53.941Z,101583.53
2023-04-29T17:55:20.804Z,101582.75
2023-04-29T17:57:47.647Z,101587.53
2023-04-29T18:00:14.625Z,101589.97
2023-04-29T18:02:41.708Z,101593.50
2023-04-29T18:05:08.641Z,101595.53
2023-04-29T18:07:35.478Z,101592.84
2023-04-29T18:10:02.272Z,101593.72
2023-04-29T18:12:36.418Z,101594.09
2023-04-29T18:15:06.226Z,101587.13
2023-04-29T18:17:34.003Z,101591.88
2023-04-29T18:20:00.884Z,101596.06
2023-04-29T18:22:27.705Z,101595.22
2023-04-29T18:24:54.470Z,101590.06
2023-04-29T18:27:21.410Z,101597.22
2023-04-29T18:29:48.146Z,101589.31
2023-04-29T18:32:17.864Z,101591.22
2023-04-29T18:34:50.595Z,101593.78
2023-04-29T18:37:17.344Z,101604.47
2023-04-29T18:39:44.027Z,101600.84
2023-04-29T18:42:10.809Z,101597.41
2023-04-29T18:44:37.567Z,101594.56
2023-04-29T18:47:04.324Z,101594.56
2023-04-29T18:49:31.128Z,101591.31
2023-04-29T18:51:57.920Z,101596.66
2023-04-29T18:54:24.584Z,101599.41
2023-04-29T18:56:51.918Z,101593.22
2023-04-29T18:59:21.588Z,101601.41
2023-04-29T19:01:49.080Z,101601.88
2023-04-29T19:04:16.652Z,101597.41
2023-04-29T19:06:43.657Z,101605.41
2023-04-29T19:09:11.483Z,101600.22
2023-04-29T19:11:39.322Z,101615.31
2023-04-29T19:14:06.175Z,101612.56
2023-04-29T19:16:34.783Z,101624.25
2023-04-29T19:19:04.433Z,101617.19
2023-04-29T19:21:33.320Z,101616.44
2023-04-29T19:24:00.181Z,101620.84
2023-04-29T19:26:26.867Z,101618.34
2023-04-29T19:28:54.479Z,101621.28
2023-04-29T19:31:21.806Z,101623.47
2023-04-29T19:33:48.672Z,101623.47
2023-04-29T19:36:15.576Z,101627.75
2023-04-29T19:38:42.389Z,101628.00
2023-04-29T19:41:09.108Z,101624.84
2023-04-29T19:43:35.872Z,101623.72
2023-04-29T19:46:02.629Z,101630.38
2023-04-29T19:48:29.394Z,101620.88
2023-04-29T19:50:59.681Z,101627.44
2023-04-29T19:53:27.006Z,101629.25
2023-04-29T19:55:54.331Z,101629.25
2023-04-29T19:58:21.063Z,101633.78
2023-04-29T20:00:48.229Z,101632.25
2023-04-29T20:03:15.255Z,101632.06
2023-04-29T20:05:42.136Z,101635.69
2023-04-29T20:08:08.833Z,101637.59
2023-04-29T20:10:35.733Z,101644.75
2023-04-29T20:13:02.500Z,101651.97
2023-04-29T20:15:29.237Z,101651.28
2023-04-29T20:18:00.973Z,101646.69
2023-04-29T20:20:27.850Z,101654.47
2023-04-29T20:22:58.255Z,101664.63
2023-04-29T20:25:25.831Z,101659.44
2023-04-29T20:27:53.934Z,101662.81
2023-04-29T20:30:20.978Z,101661.16
2023-04-29T20:32:48.592Z,101671.31
2023-04-29T20:35:16.052Z,101670.47
2023-04-29T20:37:42.807Z,101676.84
2023-04-29T20:40:10.074Z,101672.72
2023-04-29T20:42:36.780Z,101675.72
2023-04-29T20:45:04.401Z,101680.72
2023-04-29T20:47:31.184Z,101684.22
2023-04-29T20:49:57.937Z,101681.47
2023-04-29T20:52:24.658Z,101687.41
2023-04-29T20:54:52.717Z,101698.06
2023-04-29T20:57:19.523Z,101697.53
2023-04-29T20:59:46.399Z,101697.34
2023-04-29T21:02:13.445Z,101690.53
2023-04-29T21:04:40.508Z,101698.09
2023-04-29T21:07:07.863Z,101698.25
2023-04-29T21:09:36.018Z,101694.72
2023-04-29T21:12:06.371Z,101699.59
2023-04-29T21:14:34.006Z,101698.84
2023-04-29T21:17:01.171Z,101705.03
2023-04-29T21:19:28.049Z,101703.53
2023-04-29T21:22:01.561Z,101706.63
2023-04-29T21:24:28.852Z,101704.81
2023-04-29T21:26:55.720Z,101716.41
2023-04-29T21:29:22.437Z,101711.34
2023-04-29T21:31:49.279Z,101719.47
2023-04-29T21:34:16.483Z,101714.00
2023-04-29T21:36:43.213Z,101724.72
2023-04-29T21:39:10.182Z,101722.91
2023-04-29T21:41:39.169Z,101727.22
2023-04-29T21:44:06.976Z,101723.78
2023-04-29T21:46:34.639Z,101723.25
2023-04-29T21:49:03.044Z,101728.84
2023-04-29T21:51:31.875Z,101731.56
2023-04-29T21:53:58.594Z,101736.22
2023-04-29T21:56:25.367Z,101736.66
2023-04-29T21:58:52.951Z,101740.56
2023-04-29T22:01:38.370Z,101737.66
2023-04-29T22:04:05.292Z,101744.97
2023-04-29T22:06:33.603Z,101738.06
2023-04-29T22:09:00.332Z,101745.66
2023-04-29T22:11:27.128Z,101743.84
2023-04-29T22:13:53.989Z,101746.06
2023-04-29T22:16:20.838Z,101749.16
2023-04-29T22:18:47.568Z,101754.34
2023-04-29T22:21:14.355Z,101755.41
2023-04-29T22:23:41.602Z,101759.84
2023-04-29T22:26:08.345Z,101763.13
2023-04-29T22:28:35.154Z,101757.13
2023-04-29T22:31:01.899Z,101760.97
2023-04-29T22:33:29.991Z,101757.97
2023-04-29T22:35:56.711Z,101769.59
2023-04-29T22:38:23.401Z,101761.84
2023-04-29T22:40:51.275Z,101767.66
2023-04-29T22:43:18.457Z,101767.72
2023-04-29T22:45:55.295Z,101766.22
2023-04-29T22:48:23.560Z,101774.84
2023-04-29T22:50:55.778Z,101772.19
2023-04-29T22:53:22.921Z,101770.88
2023-04-29T22:55:53.932Z,101778.13
2023-04-29T22:58:21.329Z,101775.34
2023-04-29T23:00:53.675Z,101776.31
2023-04-29T23:03:20.772Z,101785.09
2023-04-29T23:05:47.485Z,101786.09
2023-04-29T23:08:14.255Z,101785.09
2023-04-29T23:10:41.034Z,101793.00
2023-04-29T23:13:07.733Z,101797.53
2023-04-29T23:15:34.493Z,101800.47
2023-04-29T23:18:01.341Z,101803.13
2023-04-29T23:20:28.018Z,101805.19
2023-04-29T23:22:54.721Z,101806.16
2023-04-29T23:25:21.582Z,101814.53
2023-04-29T23:27:48.423Z,101807.53
2023-04-29T23:30:15.144Z,101796.88
2023-04-29T23:32:41.922Z,101796.41
2023-04-29T23:35:11.458Z,101800.78
2023-04-29T23:37:38.985Z,101803.59
2023-04-29T23:40:07.251Z,101803.59
2023-04-29T23:42:34.095Z,101801.72
2023-04-29T23:45:01.095Z,101802.66
2023-04-29T23:47:28.026Z,101808.03
2023-04-29T23:49:55.069Z,101802.31
2023-04-29T23:52:22.097Z,101806.81
2023-04-29T23:54:48.783Z,101805.84
2023-04-29T23:57:15.743Z,101810.28
2023-04-29T23:59:42.702Z,101812.19
